createdAt,value
2022-08-23T00:03:08.293Z,0.11
2022-08-23T00:08:08.187Z,0.18
2022-08-23T00:13:08.168Z,0.15
2022-08-23T00:18:08.188Z,0.19
2022-08-23T00:23:08.194Z,0.23
2022-08-23T00:28:12.482Z,0.26
2022-08-23T00:33:08.198Z,0.26
2022-08-23T00:38:33.583Z,0.21
2022-08-23T00:43:08.218Z,0.17
2022-08-23T00:48:08.154Z,0.22
2022-08-23T00:53:08.159Z,0.17
2022-08-23T00:58:08.216Z,0.24
2022-08-23T01:03:08.195Z,0.18
2022-08-23T01:08:08.180Z,0.15
2022-08-23T01:13:08.190Z,0.17
2022-08-23T01:18:08.194Z,0.14
2022-08-23T01:23:08.188Z,0.18
2022-08-23T01:28:08.192Z,0.15
2022-08-23T01:33:08.208Z,0.13
2022-08-23T01:38:08.208Z,0.13
2022-08-23T01:43:08.261Z,0.14
2022-08-23T01:48:08.208Z,0.13
2022-08-23T01:53:08.208Z,0.13
2022-08-23T01:58:08.240Z,0.16
2022-08-23T02:03:08.217Z,0.15
2022-08-23T02:08:08.228Z,0.18
2022-08-23T02:13:08.219Z,0.1
2022-08-23T02:18:08.200Z,0.15
2022-08-23T02:23:08.230Z,0.16
2022-08-23T02:28:08.252Z,0.1
2022-08-23T02:33:08.253Z,0.11
2022-08-23T02:38:08.260Z,0.14
2022-08-23T02:43:08.264Z,0.1
2022-08-23T02:48:08.266Z,0.17
2022-08-23T02:53:08.255Z,0.12
2022-08-23T02:58:08.293Z,0.1
2022-08-23T03:03:08.238Z,0.14
2022-08-23T03:08:08.257Z,0.17
2022-08-23T03:13:08.257Z,0.12
2022-08-23T03:18:08.271Z,0.2
2022-08-23T03:23:08.247Z,0.11
2022-08-23T03:28:08.250Z,0.1
2022-08-23T03:33:08.253Z,0.16
2022-08-23T03:38:08.243Z,0.14
2022-08-23T03:43:08.268Z,0.17
2022-08-23T03:48:08.313Z,0.1
2022-08-23T03:53:08.254Z,0.1
2022-08-23T03:58:08.329Z,0.15
2022-08-23T04:03:08.270Z,0.13
2022-08-23T04:08:08.248Z,0.13
2022-08-23T04:13:08.308Z,0.12
2022-08-23T04:18:09.344Z,0.11
2022-08-23T04:23:08.280Z,0.1
2022-08-23T04:28:08.289Z,0.15
2022-08-23T04:33:10.158Z,0.1
2022-08-23T04:38:18.480Z,0.12
2022-08-23T04:43:08.279Z,0.1
2022-08-23T04:48:10.462Z,0.14
2022-08-23T04:53:08.282Z,0.1
2022-08-23T04:58:08.283Z,0.15
2022-08-23T05:03:08.254Z,0.1
2022-08-23T05:08:08.749Z,0.1
2022-08-23T05:13:09.350Z,0.14
2022-08-23T05:18:08.303Z,0.1
2022-08-23T05:23:08.301Z,0.15
2022-08-23T05:28:08.288Z,0.09
2022-08-23T05:33:08.283Z,0.09
2022-08-23T05:38:08.310Z,0.1
2022-08-23T05:43:08.300Z,0.12
2022-08-23T05:48:08.353Z,0.11
2022-08-23T05:53:08.327Z,0.11
2022-08-23T05:58:08.322Z,0.14
2022-08-23T06:03:08.322Z,0.1
2022-08-23T06:08:08.332Z,0.17
2022-08-23T06:13:08.412Z,0.15
2022-08-23T06:18:08.325Z,0.13
2022-08-23T06:23:08.321Z,0.13
2022-08-23T06:28:08.532Z,0.13
2022-08-23T06:33:08.326Z,0.15
2022-08-23T06:38:08.332Z,0.15
2022-08-23T06:43:08.335Z,0.1
2022-08-23T06:48:08.382Z,0.15
2022-08-23T06:53:09.912Z,0.13
2022-08-23T06:58:08.348Z,0.11
2022-08-23T07:03:08.415Z,0.1
2022-08-23T07:08:08.349Z,0.17
2022-08-23T07:13:08.347Z,0.21
2022-08-23T07:18:08.310Z,0.13
2022-08-23T07:23:08.341Z,0.14
2022-08-23T07:28:11.565Z,0.14
2022-08-23T07:33:08.347Z,0.13
2022-08-23T07:38:08.367Z,0.14
2022-08-23T07:43:08.347Z,0.18
2022-08-23T07:48:08.424Z,0.12
2022-08-23T07:53:08.346Z,0.11
2022-08-23T07:58:08.370Z,0.1
2022-08-23T08:03:08.419Z,0.1
2022-08-23T08:08:08.459Z,0.12
2022-08-23T08:13:08.357Z,0.14
2022-08-23T08:18:08.368Z,0.25
2022-08-23T08:23:08.375Z,0.14
2022-08-23T08:28:11.572Z,0.14
2022-08-23T08:33:08.357Z,0.16
2022-08-23T08:38:08.385Z,0.12
2022-08-23T08:43:08.388Z,0.15
2022-08-23T08:48:12.831Z,0.2
2022-08-23T08:53:08.379Z,0.19
2022-08-23T08:58:08.393Z,0.14
2022-08-23T09:03:08.420Z,0.2
2022-08-23T09:08:08.359Z,0.23
2022-08-23T09:13:08.395Z,0.2
2022-08-23T09:18:08.399Z,0.16
2022-08-23T09:23:08.378Z,0.13
2022-08-23T09:28:08.436Z,0.23
2022-08-23T09:33:08.485Z,0.17
2022-08-23T09:38:08.423Z,0.17
2022-08-23T09:43:08.403Z,0.19
2022-08-23T09:48:08.400Z,0.16
2022-08-23T09:53:08.396Z,0.19
2022-08-23T09:58:08.406Z,0.18
2022-08-23T10:03:08.412Z,0.21
2022-08-23T10:08:10.603Z,0.19
2022-08-23T10:13:08.418Z,0.27
2022-08-23T10:18:08.420Z,0.22
2022-08-23T10:23:08.407Z,0.33
2022-08-23T10:28:08.402Z,0.2
2022-08-23T10:33:08.466Z,0.3
2022-08-23T10:38:08.375Z,0.21
2022-08-23T10:43:08.436Z,0.2
2022-08-23T10:48:08.400Z,0.16
2022-08-23T10:53:08.406Z,0.19
2022-08-23T10:58:08.420Z,0.2
2022-08-23T11:03:08.410Z,0.21
2022-08-23T11:08:08.418Z,0.21
2022-08-23T11:13:08.405Z,0.24
2022-08-23T11:18:08.428Z,0.22
2022-08-23T11:23:08.415Z,0.26
2022-08-23T11:28:08.385Z,0.19
2022-08-23T11:33:08.432Z,0.34
2022-08-23T11:38:08.400Z,0.19
2022-08-23T11:43:08.433Z,0.22
2022-08-23T11:48:08.458Z,0.3
2022-08-23T11:53:08.415Z,0.28
2022-08-23T11:58:08.412Z,0.35
2022-08-23T12:03:08.565Z,0.33
2022-08-23T12:08:08.390Z,0.31
2022-08-23T12:13:08.709Z,0.31
2022-08-23T12:18:08.438Z,0.27
2022-08-23T12:23:08.445Z,0.37
2022-08-23T12:28:08.409Z,0.45
2022-08-23T12:33:08.434Z,0.4
2022-08-23T12:38:08.443Z,0.31
2022-08-23T12:43:08.433Z,0.34
2022-08-23T12:48:08.491Z,0.34
2022-08-23T12:53:08.437Z,0.43
2022-08-23T12:58:08.468Z,0.34
2022-08-23T13:03:08.570Z,0.4
2022-08-23T13:08:08.445Z,0.36
2022-08-23T13:13:08.454Z,0.29
2022-08-23T13:18:08.485Z,0.24
2022-08-23T13:23:08.461Z,0.33
2022-08-23T13:28:08.430Z,0.42
2022-08-23T13:33:08.487Z,0.27
2022-08-23T13:38:08.477Z,0.28
2022-08-23T13:43:10.003Z,0.37
2022-08-23T13:48:08.471Z,0.38
2022-08-23T13:53:14.651Z,0.34
2022-08-23T13:58:08.496Z,0.31
2022-08-23T14:03:08.526Z,0.21
2022-08-23T14:08:08.487Z,0.31
2022-08-23T14:13:08.492Z,0.27
2022-08-23T14:18:08.478Z,0.22
2022-08-23T14:23:12.158Z,0.29
2022-08-23T14:28:08.511Z,0.28
2022-08-23T14:33:08.466Z,0.17
2022-08-23T14:38:08.532Z,0.34
2022-08-23T14:43:08.494Z,0.3
2022-08-23T14:48:08.492Z,0.37
2022-08-23T14:53:08.506Z,0.26
2022-08-23T14:58:08.466Z,0.22
2022-08-23T15:03:09.895Z,0.19
2022-08-23T15:08:08.494Z,0.3
2022-08-23T15:13:22.030Z,0.27
2022-08-23T15:18:08.528Z,0.26
2022-08-23T15:23:08.682Z,0.23
2022-08-23T15:28:12.266Z,0.37
2022-08-23T15:33:08.844Z,0.34
2022-08-23T15:38:08.548Z,0.28
2022-08-23T15:43:08.484Z,0.3
2022-08-23T15:48:08.526Z,0.32
2022-08-23T15:53:08.531Z,0.27
2022-08-23T15:58:08.531Z,0.22
2022-08-23T16:03:18.627Z,0.25
2022-08-23T16:08:08.538Z,0.22
2022-08-23T16:13:08.544Z,0.31
2022-08-23T16:18:08.537Z,0.31
2022-08-23T16:23:08.559Z,0.44
2022-08-23T16:28:08.540Z,0.54
2022-08-23T16:33:08.615Z,0.27
2022-08-23T16:38:08.538Z,0.37
2022-08-23T16:43:08.538Z,0.39
2022-08-23T16:48:11.756Z,0.43
2022-08-23T16:53:08.712Z,0.29
2022-08-23T16:58:08.563Z,0.38
2022-08-23T17:03:08.624Z,0.26
2022-08-23T17:08:08.543Z,0.33
2022-08-23T17:13:08.550Z,0.35
2022-08-23T17:18:08.559Z,0.35
2022-08-23T17:23:08.578Z,0.26
2022-08-23T17:28:08.554Z,0.24
2022-08-23T17:33:08.581Z,0.31
2022-08-23T17:38:08.580Z,0.51
2022-08-23T17:43:08.557Z,0.25
2022-08-23T17:48:08.581Z,0.2
2022-08-23T17:53:08.562Z,0.33
2022-08-23T17:58:08.562Z,0.21
2022-08-23T18:03:08.632Z,0.31
2022-08-23T18:08:08.584Z,0.31
2022-08-23T18:13:08.559Z,0.4
2022-08-23T18:18:08.581Z,0.38
2022-08-23T18:23:08.581Z,0.32
2022-08-23T18:28:08.670Z,0.4
2022-08-23T18:33:12.372Z,0.3
2022-08-23T18:38:08.591Z,0.33
2022-08-23T18:43:08.612Z,0.26
2022-08-23T18:48:08.608Z,0.34
2022-08-23T18:53:08.614Z,0.34
2022-08-23T18:58:08.601Z,0.21
2022-08-23T19:03:08.637Z,0.24
2022-08-23T19:08:08.620Z,0.24
2022-08-23T19:13:08.894Z,0.4
2022-08-23T19:18:08.610Z,0.59
2022-08-23T19:23:08.613Z,0.41
2022-08-23T19:28:08.607Z,0.5
2022-08-23T19:33:08.592Z,0.37
2022-08-23T19:38:08.615Z,0.39
2022-08-23T19:43:08.613Z,0.31
2022-08-23T19:48:08.585Z,0.38
2022-08-23T19:53:08.609Z,0.51
2022-08-23T19:58:08.581Z,0.34
2022-08-23T20:03:08.583Z,0.25
2022-08-23T20:08:08.626Z,0.38
2022-08-23T20:13:08.624Z,0.28
2022-08-23T20:18:08.615Z,0.36
2022-08-23T20:23:08.628Z,0.23
2022-08-23T20:28:08.681Z,0.35
2022-08-23T20:33:08.647Z,0.37
2022-08-23T20:38:08.660Z,0.37
2022-08-23T20:43:08.627Z,0.31
2022-08-23T20:48:08.681Z,0.34
2022-08-23T20:53:08.629Z,0.3
2022-08-23T20:58:08.650Z,0.26
2022-08-23T21:03:08.630Z,0.32
2022-08-23T21:08:08.642Z,0.35
2022-08-23T21:13:10.579Z,0.41
2022-08-23T21:18:08.643Z,0.29
2022-08-23T21:23:08.639Z,0.34
2022-08-23T21:28:08.616Z,0.26
2022-08-23T21:33:08.631Z,0.33
2022-08-23T21:38:08.671Z,0.32
2022-08-23T21:43:08.639Z,0.38
2022-08-23T21:48:08.656Z,0.43
2022-08-23T21:53:08.851Z,0.36
2022-08-23T21:58:08.649Z,0.32
2022-08-23T22:03:08.711Z,0.41
2022-08-23T22:08:08.635Z,0.35
2022-08-23T22:13:08.705Z,0.36
2022-08-23T22:18:08.655Z,0.27
2022-08-23T22:23:08.623Z,0.3
2022-08-23T22:28:08.667Z,0.22
2022-08-23T22:33:08.664Z,0.25
2022-08-23T22:38:13.930Z,0.22
2022-08-23T22:43:08.854Z,0.29
2022-08-23T22:48:08.688Z,0.23
2022-08-23T22:53:08.683Z,0.34
2022-08-23T22:58:08.710Z,0.36
2022-08-23T23:03:08.684Z,0.25
2022-08-23T23:08:08.685Z,0.2
2022-08-23T23:13:08.708Z,0.35
2022-08-23T23:18:08.677Z,0.24
2022-08-23T23:23:08.703Z,0.29
2022-08-23T23:28:08.713Z,0.24
2022-08-23T23:33:08.685Z,0.22
2022-08-23T23:38:08.702Z,0.32
2022-08-23T23:43:08.970Z,0.29
2022-08-23T23:48:08.914Z,0.26
2022-08-23T23:53:08.697Z,0.32
2022-08-23T23:58:08.705Z,0.28
